Terminal Aerodrome Forecast
Issued by NWS

Current Version | Previous Version | Graphics & Text | Print | Product List | Glossary On
Versions: 1 2 3 4 5 6 7 8 9 10 11 12 13 14 15 16 17 18 19 20 21 22 23 24 25 26 27 28 29
000
FTUS41 KILN 241100
TAFLUK
TAF
KLUK 241120Z 2412/2512 15004KT P6SM SCT150
     FM241400 17008KT P6SM SCT100 BKN150
     FM241800 17010G17KT P6SM SCT100 BKN200
     FM242300 16008KT P6SM BKN200
     FM251100 18012KT P6SM SCT040 BKN080=

USA.gov is the U.S. government's official web portal to all federal, state and local government web resources and services.